TORONTO ISLAND, Ontario

10:09 AM EST on February 26, 2017 (GMT -0500)
Marina Quay West | | Change Station

Elev 249 ft 43.64 °N, 79.39 °W | Updated 35 seconds ago

Light Snow
Light Snow
31.7 °F
Feels Like 24 °F
N
8.0
Wind Variable Wind from NW

Today
High -- | Low -- °F
--% Chance of Precip.
Yesterday
High -- | Low -- °F
Precip. -- in
Pressure 30.06 in
Visibility 9.0 miles
Clouds Mostly Cloudy 3500 ft
Mostly Cloudy 4600 ft
Overcast 5500 ft
Windchill 24 °F
Dew Point 17 °F
Humidity 55%
Rainfall 0.00 in
Snow Depth Not available.
6:58 AM 6:02 PM
New Moon, 0% visible
METAR CYTZ 261500Z AUTO 28015KT 9SM -SN BKN035 BKN046 OVC055 M01/M08 A3004 RMK SLP177
Pressure 30.06 in
Visibility 9.0 miles
Clouds Mostly Cloudy 3500 ft
Mostly Cloudy 4600 ft
Overcast 5500 ft
Windchill 24 °F
Dew Point 17 °F
Humidity 55%
Rainfall 0.00 in
Snow Depth Not available.
6:58 AM 6:02 PM
New Moon, 0% visible
METAR CYTZ 261500Z AUTO 28015KT 9SM -SN BKN035 BKN046 OVC055 M01/M08 A3004 RMK SLP177

Get Your Daily Forecast Email!

Thanks for signing up!

Be on the lookout for a verification email in your inbox.

You'll start receiving the daily forecast at 8 AM.

×

10-Day Weather Forecast

Almanac

Astronomy

Feb. 26, 2017 Rise Set
Actual Time
Civil Twilight
Nautical Twilight
Astronomical Twilight
Moon
Length of Visible Light
Length of Day
Tomorrow will be .
, % of the Moon is Illuminated

Today's Extremes

Country Highs Country Lows

Community

WunderPhotos

Upload Photos

1,962,540 photos uploaded!

WunderBlog® & News

Nearby

Air Quality

  Air Quality AQ Index Pollutant
Not available.

Snow Depth

Station Depth Elevation

Earthquake Activity

City Distance Mag. Time & Date
Minimum magnitude displayed is 2.5.

Coastal Water Temperatures

Place Temperature

Stations

Nearby Weather Stations

Station Location Temp. Windchill Dew Point Humidity Wind Precip. Elev Updated Type
                   

Watches & Warnings

There are currently no watches in effect.